Doetinchem, Netherlands
Current Conditions -  °F | °C
As of 1:55 AM on Saturday 25 Oct 2014 (Local Time) from EHDL Reporting Station
Haze Haze  
Wind Chill: 52°   Ceiling: 500
Heat Index: 52°   Visibility: 2.1mi
Dew Point: 52°   Wind: 13mph
Humidity: 100%   Direction: 190°S
Pressure: 30"   Gusts: NA
Location:  51.97°N, 6.29°E
Report Text: EHDL 242355Z AUTO 19011KT 3400 BR SCT004 OVC005 11/11 Q1016 YLO
Loading
Personal Weather Stations






























Interactive Weather Map
Tropical Storm Tracking
New forecast layout! Learn more

10-Day Weather Forecast

Advertisements
Track Severe Weather on mobile